Time;durP1;ratioP1;P1;durP2;ratioP2;P2;SDS_P1;SDS_P2;PMS_P1;PMS_P2;Temp;Humidity;BMP_temperature;BMP_pressure;BME280_temperature;BME280_humidity;BME280_pressure;Samples;Min_cycle;Max_cycle;Signal;HPM_P1;HPM_P2
2023/03/30 00:01:35;;;;;;;0.10;0.10;;;;;;;;;;5014023;28;20255;-65
2023/03/30 00:04:01;;;;;;;0.17;0.17;;;;;;;;;;5024661;28;20208;-65
2023/03/30 00:06:29;;;;;;;0.10;0.10;;;;;;;;;;5014045;28;20255;-65
2023/03/30 00:08:57;;;;;;;0.10;0.10;;;;;;;;;;5024406;28;20279;-65
2023/03/30 00:11:23;;;;;;;0.40;0.40;;;;;;;;;;5014267;28;20248;-65
2023/03/30 00:13:50;;;;;;;2.63;2.53;;;;;;;;;;5024921;28;20236;-65
2023/03/30 00:16:17;;;;;;;0.13;0.13;;;;;;;;;;5014615;28;20647;-64
2023/03/30 00:18:44;;;;;;;0.10;0.10;;;;;;;;;;5024633;28;20225;-65
2023/03/30 00:21:11;;;;;;;0.93;0.93;;;;;;;;;;5014315;28;20243;-65
2023/03/30 00:23:39;;;;;;;0.10;0.10;;;;;;;;;;5024567;28;20205;-65
2023/03/30 00:26:06;;;;;;;0.20;0.20;;;;;;;;;;5014337;28;20267;-66
2023/03/30 00:28:33;;;;;;;0.53;0.40;;;;;;;;;;5024149;28;20519;-65
2023/03/30 00:30:59;;;;;;;0.10;0.10;;;;;;;;;;5014232;28;20395;-65
2023/03/30 00:33:26;;;;;;;0.20;0.20;;;;;;;;;;5024104;28;20235;-64
2023/03/30 00:35:53;;;;;;;0.10;0.10;;;;;;;;;;5014284;28;20241;-65
2023/03/30 00:38:20;;;;;;;0.10;0.10;;;;;;;;;;5024007;28;20460;-65
2023/03/30 00:40:52;;;;;;;0.20;0.20;;;;;;;;;;5014307;28;20273;-65
2023/03/30 00:43:19;;;;;;;0.10;0.10;;;;;;;;;;5023598;28;20233;-65
2023/03/30 00:45:45;;;;;;;0.13;0.13;;;;;;;;;;5013841;28;20248;-65
2023/03/30 00:48:14;;;;;;;0.33;0.33;;;;;;;;;;5023352;28;20209;-65
2023/03/30 00:50:43;;;;;;;0.10;0.10;;;;;;;;;;5013886;28;20332;-64
2023/03/30 00:53:11;;;;;;;5.70;5.37;;;;;;;;;;5023143;28;20278;-65
2023/03/30 00:55:39;;;;;;;0.10;0.10;;;;;;;;;;5013807;28;20498;-65
2023/03/30 00:58:09;;;;;;;0.10;0.10;;;;;;;;;;5023503;28;20460;-65
2023/03/30 01:00:37;;;;;;;0.10;0.10;;;;;;;;;;5013985;28;20244;-65
2023/03/30 01:03:05;;;;;;;0.53;0.53;;;;;;;;;;5023608;28;20205;-64
2023/03/30 01:05:32;;;;;;;0.10;0.10;;;;;;;;;;5014223;28;20300;-65
2023/03/30 01:07:58;;;;;;;0.10;0.10;;;;;;;;;;5023065;28;20512;-65
2023/03/30 01:10:25;;;;;;;0.10;0.10;;;;;;;;;;5014157;28;20209;-65
2023/03/30 01:12:51;;;;;;;0.10;0.10;;;;;;;;;;5023309;28;20369;-65
2023/03/30 01:15:20;;;;;;;0.10;0.10;;;;;;;;;;5013519;28;20272;-65
2023/03/30 01:18:02;;;;;;;0.10;0.10;;;;;;;;;;5022991;28;20401;-65
2023/03/30 01:20:41;;;;;;;0.10;0.10;;;;;;;;;;5013671;28;20243;-65
2023/03/30 01:23:26;;;;;;;0.10;0.10;;;;;;;;;;5023191;28;20380;-66
2023/03/30 01:26:22;;;;;;;0.10;0.10;;;;;;;;;;5013848;28;20352;-65
2023/03/30 01:28:51;;;;;;;0.10;0.10;;;;;;;;;;4950768;29;20616;-65
2023/03/30 01:31:36;;;;;;;0.10;0.10;;;;;;;;;;4996106;28;20259;-65
2023/03/30 01:34:20;;;;;;;0.10;0.10;;;;;;;;;;5023969;28;20213;-65
2023/03/30 01:36:56;;;;;;;0.10;0.10;;;;;;;;;;5013170;28;20243;-65
2023/03/30 01:39:32;;;;;;;0.10;0.10;;;;;;;;;;5023584;28;20300;-65
2023/03/30 01:42:01;;;;;;;0.10;0.10;;;;;;;;;;5012926;28;20241;-65
2023/03/30 01:44:32;;;;;;;0.10;0.10;;;;;;;;;;5024083;28;20212;-65
2023/03/30 01:47:04;;;;;;;0.10;0.10;;;;;;;;;;5012814;28;20300;-65
2023/03/30 01:49:35;;;;;;;0.10;0.10;;;;;;;;;;5024197;28;20248;-65
2023/03/30 01:52:05;;;;;;;0.10;0.10;;;;;;;;;;5012578;28;20305;-65
2023/03/30 01:54:35;;;;;;;0.10;0.10;;;;;;;;;;5023640;28;20280;-65
2023/03/30 01:57:05;;;;;;;0.10;0.10;;;;;;;;;;5012230;28;20241;-65
2023/03/30 01:59:33;;;;;;;0.10;0.10;;;;;;;;;;5023263;28;20235;-65
2023/03/30 02:02:02;;;;;;;0.10;0.10;;;;;;;;;;5012317;28;20252;-65
2023/03/30 02:04:30;;;;;;;0.10;0.10;;;;;;;;;;5023562;28;20221;-65
2023/03/30 02:06:59;;;;;;;0.10;0.10;;;;;;;;;;5012218;28;20528;-65
2023/03/30 02:09:26;;;;;;;0.10;0.10;;;;;;;;;;5023301;28;20268;-65
2023/03/30 02:11:54;;;;;;;0.10;0.10;;;;;;;;;;5012273;28;20313;-65
2023/03/30 02:14:23;;;;;;;0.10;0.10;;;;;;;;;;5023310;28;20216;-65
2023/03/30 02:16:50;;;;;;;0.10;0.10;;;;;;;;;;5012261;28;20268;-65
2023/03/30 02:19:16;;;;;;;0.10;0.10;;;;;;;;;;5022942;28;20265;-65
2023/03/30 02:21:43;;;;;;;0.10;0.10;;;;;;;;;;5013607;28;20246;-65
2023/03/30 02:24:16;;;;;;;0.10;0.10;;;;;;;;;;5026632;28;20205;-64
2023/03/30 02:26:42;;;;;;;0.10;0.10;;;;;;;;;;5015755;28;20456;-65
2023/03/30 02:29:10;;;;;;;0.10;0.10;;;;;;;;;;5026354;28;20209;-65
2023/03/30 02:31:37;;;;;;;0.10;0.10;;;;;;;;;;5015750;28;20264;-65
2023/03/30 02:34:08;;;;;;;0.10;0.10;;;;;;;;;;5026258;28;20276;-65
2023/03/30 02:36:45;;;;;;;0.10;0.10;;;;;;;;;;5015560;28;20240;-65
2023/03/30 02:39:20;;;;;;;0.10;0.10;;;;;;;;;;5026397;28;20442;-65
2023/03/30 02:42:04;;;;;;;0.10;0.10;;;;;;;;;;5015402;28;20248;-65
2023/03/30 02:44:35;;;;;;;0.10;0.10;;;;;;;;;;5026615;28;20442;-65
2023/03/30 02:47:06;;;;;;;0.10;0.10;;;;;;;;;;5015141;28;20394;-65
2023/03/30 02:49:39;;;;;;;0.10;0.10;;;;;;;;;;5026530;28;20551;-65
2023/03/30 02:52:09;;;;;;;0.10;0.10;;;;;;;;;;5015071;28;20488;-65
2023/03/30 02:54:41;;;;;;;0.10;0.10;;;;;;;;;;5026400;28;20220;-65
2023/03/30 02:57:09;;;;;;;0.10;0.10;;;;;;;;;;5014962;28;20587;-65
2023/03/30 02:59:40;;;;;;;0.13;0.13;;;;;;;;;;5025964;28;20301;-65
2023/03/30 03:02:10;;;;;;;0.10;0.10;;;;;;;;;;5014794;28;20263;-65
2023/03/30 03:04:37;;;;;;;0.10;0.10;;;;;;;;;;5026130;28;20205;-65
2023/03/30 03:07:03;;;;;;;0.10;0.10;;;;;;;;;;5014723;28;20263;-65
2023/03/30 03:09:30;;;;;;;0.20;0.20;;;;;;;;;;5025909;28;20339;-65
2023/03/30 03:11:56;;;;;;;0.10;0.10;;;;;;;;;;5014703;28;20300;-65
2023/03/30 03:14:25;;;;;;;0.07;0.07;;;;;;;;;;5025736;28;20255;-65
2023/03/30 03:16:53;;;;;;;0.10;0.10;;;;;;;;;;5014617;28;20245;-65
2023/03/30 03:19:19;;;;;;;0.10;0.10;;;;;;;;;;5025281;28;20302;-65
2023/03/30 03:21:45;;;;;;;0.10;0.10;;;;;;;;;;5014540;28;20255;-65
2023/03/30 03:24:16;;;;;;;0.10;0.10;;;;;;;;;;5025549;28;20244;-65
2023/03/30 03:26:42;;;;;;;0.10;0.10;;;;;;;;;;5014604;28;20255;-65
2023/03/30 03:29:08;;;;;;;0.20;0.20;;;;;;;;;;5025443;28;20449;-65
2023/03/30 03:31:35;;;;;;;0.10;0.10;;;;;;;;;;5014496;28;20311;-65
2023/03/30 03:34:03;;;;;;;1.13;1.13;;;;;;;;;;5024166;28;20207;-66
2023/03/30 03:36:31;;;;;;;0.10;0.10;;;;;;;;;;5014477;28;20301;-65
2023/03/30 03:38:57;;;;;;;0.10;0.10;;;;;;;;;;5025101;28;20275;-65
2023/03/30 03:41:24;;;;;;;0.20;0.20;;;;;;;;;;5014297;28;20314;-65
2023/03/30 03:43:50;;;;;;;0.10;0.10;;;;;;;;;;5024568;28;20274;-64
2023/03/30 03:46:17;;;;;;;0.10;0.10;;;;;;;;;;5014388;28;20266;-65
2023/03/30 03:48:43;;;;;;;0.10;0.10;;;;;;;;;;5024687;28;20270;-64
2023/03/30 03:51:11;;;;;;;0.10;0.10;;;;;;;;;;5014188;28;20256;-65
2023/03/30 03:53:37;;;;;;;0.10;0.10;;;;;;;;;;5024698;28;20215;-65
2023/03/30 03:56:03;;;;;;;0.10;0.10;;;;;;;;;;5014183;28;20257;-65
2023/03/30 03:58:30;;;;;;;0.10;0.10;;;;;;;;;;5024072;28;20236;-65
2023/03/30 04:00:59;;;;;;;0.10;0.10;;;;;;;;;;5014124;28;20247;-65
2023/03/30 04:03:26;;;;;;;0.10;0.10;;;;;;;;;;5023819;28;20205;-65
2023/03/30 04:05:52;;;;;;;0.10;0.10;;;;;;;;;;5014091;28;20257;-65
2023/03/30 04:08:20;;;;;;;0.10;0.10;;;;;;;;;;5023938;28;20204;-65
2023/03/30 04:10:46;;;;;;;0.10;0.10;;;;;;;;;;5014250;28;20305;-65
2023/03/30 04:13:12;;;;;;;0.10;0.10;;;;;;;;;;5023846;28;20208;-65
2023/03/30 04:15:39;;;;;;;1.23;0.70;;;;;;;;;;5014415;28;20317;-65
2023/03/30 04:18:07;;;;;;;0.10;0.10;;;;;;;;;;5023752;28;20212;-65
2023/03/30 04:20:33;;;;;;;0.10;0.10;;;;;;;;;;5014402;28;20245;-65
2023/03/30 04:23:00;;;;;;;0.10;0.10;;;;;;;;;;5023482;28;20212;-65
2023/03/30 04:25:28;;;;;;;0.10;0.10;;;;;;;;;;5014304;28;20438;-65
2023/03/30 04:27:55;;;;;;;0.10;0.10;;;;;;;;;;5023349;28;20241;-65
2023/03/30 04:30:22;;;;;;;0.10;0.10;;;;;;;;;;5014379;28;20807;-65
2023/03/30 04:33:01;;;;;;;0.13;0.13;;;;;;;;;;5023523;28;20194;-65
2023/03/30 04:35:27;;;;;;;0.10;0.10;;;;;;;;;;5014370;28;20520;-65
2023/03/30 04:37:53;;;;;;;0.10;0.10;;;;;;;;;;5023444;28;20279;-65
2023/03/30 04:40:20;;;;;;;0.10;0.10;;;;;;;;;;5013910;28;20221;-65
2023/03/30 04:42:48;;;;;;;0.10;0.10;;;;;;;;;;5023079;28;20266;-65
2023/03/30 04:45:15;;;;;;;0.10;0.10;;;;;;;;;;5013550;28;20208;-65
2023/03/30 04:47:41;;;;;;;0.10;0.10;;;;;;;;;;5022869;28;20200;-65
2023/03/30 04:50:08;;;;;;;0.10;0.10;;;;;;;;;;5017798;28;20203;-65
2023/03/30 04:52:34;;;;;;;0.10;0.10;;;;;;;;;;5023021;28;20217;-65
2023/03/30 04:55:01;;;;;;;0.10;0.10;;;;;;;;;;5024326;28;20540;-65
2023/03/30 04:57:28;;;;;;;0.10;0.10;;;;;;;;;;5012769;28;20292;-65
2023/03/30 04:59:55;;;;;;;0.10;0.10;;;;;;;;;;5023575;28;20241;-65
2023/03/30 05:02:22;;;;;;;0.10;0.10;;;;;;;;;;5012769;28;20335;-65
2023/03/30 05:04:48;;;;;;;0.10;0.10;;;;;;;;;;5024101;28;20213;-65
2023/03/30 05:07:14;;;;;;;0.10;0.10;;;;;;;;;;5012641;28;20237;-65
2023/03/30 05:09:41;;;;;;;0.10;0.10;;;;;;;;;;5024087;28;20273;-65
2023/03/30 05:12:07;;;;;;;0.10;0.10;;;;;;;;;;5012663;28;20268;-65
2023/03/30 05:14:33;;;;;;;0.10;0.10;;;;;;;;;;5023565;28;20272;-65
2023/03/30 05:17:01;;;;;;;0.10;0.10;;;;;;;;;;5012675;28;20241;-65
2023/03/30 05:19:28;;;;;;;0.10;0.10;;;;;;;;;;5023847;28;20415;-65
2023/03/30 05:21:54;;;;;;;0.40;0.40;;;;;;;;;;5012725;28;20460;-65
2023/03/30 05:24:20;;;;;;;0.20;0.20;;;;;;;;;;5023353;28;20205;-65
2023/03/30 05:26:47;;;;;;;0.10;0.10;;;;;;;;;;5012706;28;20308;-65
2023/03/30 05:29:14;;;;;;;0.10;0.10;;;;;;;;;;5023619;28;20229;-65
2023/03/30 05:31:40;;;;;;;0.10;0.10;;;;;;;;;;5012799;28;20479;-65
2023/03/30 05:34:08;;;;;;;0.10;0.10;;;;;;;;;;5023529;28;20205;-65
2023/03/30 05:36:35;;;;;;;0.10;0.10;;;;;;;;;;5012685;28;20247;-65
2023/03/30 05:39:03;;;;;;;0.10;0.10;;;;;;;;;;5023108;28;20237;-65
2023/03/30 05:41:30;;;;;;;0.10;0.10;;;;;;;;;;5012690;28;20241;-65
2023/03/30 05:43:57;;;;;;;0.10;0.10;;;;;;;;;;5023225;28;20213;-65
2023/03/30 05:46:23;;;;;;;0.10;0.10;;;;;;;;;;5012769;28;20584;-65
2023/03/30 05:48:50;;;;;;;0.10;0.10;;;;;;;;;;5023063;28;20248;-65
2023/03/30 05:51:17;;;;;;;0.10;0.10;;;;;;;;;;5012701;28;20254;-65
2023/03/30 05:53:44;;;;;;;0.10;0.10;;;;;;;;;;5023068;28;20532;-65
2023/03/30 05:56:11;;;;;;;0.10;0.10;;;;;;;;;;5013519;28;20241;-65
2023/03/30 05:58:37;;;;;;;0.10;0.10;;;;;;;;;;5026742;28;20331;-65
2023/03/30 06:01:04;;;;;;;0.10;0.10;;;;;;;;;;5016444;28;20242;-65
2023/03/30 06:03:31;;;;;;;0.10;0.10;;;;;;;;;;5026392;28;20205;-65
2023/03/30 06:05:58;;;;;;;0.10;0.10;;;;;;;;;;5016605;28;20245;-71
2023/03/30 06:08:26;;;;;;;0.30;0.30;;;;;;;;;;5026454;28;20280;-66
2023/03/30 06:10:53;;;;;;;0.10;0.10;;;;;;;;;;5016549;28;20498;-65
2023/03/30 06:13:20;;;;;;;0.10;0.10;;;;;;;;;;5026369;28;20438;-65
2023/03/30 06:15:46;;;;;;;0.10;0.10;;;;;;;;;;5016276;28;20275;-65
2023/03/30 06:18:12;;;;;;;0.10;0.10;;;;;;;;;;5025953;28;20238;-65
2023/03/30 06:20:39;;;;;;;0.10;0.10;;;;;;;;;;5016471;28;20332;-66
2023/03/30 06:23:05;;;;;;;0.10;0.10;;;;;;;;;;5025759;28;20233;-65
2023/03/30 06:25:34;;;;;;;0.20;0.20;;;;;;;;;;5016634;28;20264;-65
2023/03/30 06:28:00;;;;;;;0.10;0.10;;;;;;;;;;5025925;28;20194;-65
2023/03/30 06:30:28;;;;;;;0.10;0.10;;;;;;;;;;5016400;28;20811;-65
2023/03/30 06:32:54;;;;;;;0.50;0.50;;;;;;;;;;5025512;28;20224;-66
2023/03/30 06:35:21;;;;;;;0.10;0.10;;;;;;;;;;5016531;28;20209;-66
2023/03/30 06:37:47;;;;;;;0.10;0.10;;;;;;;;;;5025213;28;20200;-66
2023/03/30 06:40:13;;;;;;;3.00;2.73;;;;;;;;;;5016372;28;20462;-66
2023/03/30 06:42:42;;;;;;;0.10;0.10;;;;;;;;;;5025245;28;20200;-65
2023/03/30 06:45:09;;;;;;;0.20;0.20;;;;;;;;;;5017597;28;20523;-66
2023/03/30 06:47:36;;;;;;;0.10;0.10;;;;;;;;;;5025282;28;20213;-66
2023/03/30 06:50:02;;;;;;;0.17;0.17;;;;;;;;;;5026508;28;20276;-66
2023/03/30 06:52:29;;;;;;;0.10;0.10;;;;;;;;;;5015005;28;20241;-65
2023/03/30 06:54:56;;;;;;;0.30;0.30;;;;;;;;;;5026394;28;20211;-65
2023/03/30 06:57:22;;;;;;;0.10;0.10;;;;;;;;;;5014881;28;20572;-65
2023/03/30 06:59:50;;;;;;;0.60;0.60;;;;;;;;;;5025933;28;20230;-66
2023/03/30 07:02:16;;;;;;;0.10;0.10;;;;;;;;;;5014987;28;20312;-66
2023/03/30 07:04:45;;;;;;;0.13;0.13;;;;;;;;;;5026374;28;20210;-66
2023/03/30 07:07:12;;;;;;;0.10;0.10;;;;;;;;;;5014586;28;20422;-65
2023/03/30 07:09:38;;;;;;;0.10;0.10;;;;;;;;;;5026198;28;20321;-65
2023/03/30 07:12:05;;;;;;;0.30;0.30;;;;;;;;;;5014659;28;20245;-65
2023/03/30 07:14:31;;;;;;;0.10;0.10;;;;;;;;;;5026565;28;20207;-65
2023/03/30 07:16:59;;;;;;;0.30;0.30;;;;;;;;;;5015437;28;20242;-66
2023/03/30 07:19:25;;;;;;;0.10;0.10;;;;;;;;;;5026104;28;20240;-65
2023/03/30 07:21:52;;;;;;;0.30;0.30;;;;;;;;;;5015269;28;20245;-66
2023/03/30 07:24:18;;;;;;;0.10;0.10;;;;;;;;;;5026734;28;20423;-66
2023/03/30 07:26:44;;;;;;;0.10;0.10;;;;;;;;;;5015814;28;20272;-66
2023/03/30 07:29:11;;;;;;;0.10;0.10;;;;;;;;;;5025659;28;20457;-65
2023/03/30 07:31:37;;;;;;;0.10;0.10;;;;;;;;;;5015190;28;20273;-66
2023/03/30 07:34:06;;;;;;;0.10;0.10;;;;;;;;;;5025740;28;20271;-66
2023/03/30 07:36:32;;;;;;;0.10;0.10;;;;;;;;;;5014940;28;20250;-69
2023/03/30 07:39:00;;;;;;;20.03;1.67;;;;;;;;;;5025409;28;20234;-66
2023/03/30 07:41:26;;;;;;;0.10;0.10;;;;;;;;;;5015209;28;20278;-66
2023/03/30 07:43:52;;;;;;;0.33;0.30;;;;;;;;;;5025468;28;20207;-66
2023/03/30 07:46:19;;;;;;;4.87;2.03;;;;;;;;;;5015088;28;20305;-66
2023/03/30 07:48:45;;;;;;;0.67;0.67;;;;;;;;;;5025696;28;20247;-66
2023/03/30 07:51:13;;;;;;;2.90;1.93;;;;;;;;;;5015247;28;20297;-65
2023/03/30 07:53:40;;;;;;;0.20;0.20;;;;;;;;;;5025553;28;20238;-65
2023/03/30 07:56:07;;;;;;;0.10;0.10;;;;;;;;;;5015091;28;20247;-66
2023/03/30 07:58:33;;;;;;;1.30;0.67;;;;;;;;;;5024490;28;20207;-66
2023/03/30 08:01:01;;;;;;;0.10;0.10;;;;;;;;;;5014906;28;20251;-66
2023/03/30 08:03:28;;;;;;;0.10;0.10;;;;;;;;;;5025167;28;20212;-66
2023/03/30 08:05:55;;;;;;;0.10;0.10;;;;;;;;;;5015078;28;20301;-66
2023/03/30 08:08:23;;;;;;;1.23;1.13;;;;;;;;;;5025192;28;20395;-66
2023/03/30 08:10:49;;;;;;;0.10;0.10;;;;;;;;;;5015152;28;20303;-66
2023/03/30 08:13:16;;;;;;;2.40;1.00;;;;;;;;;;5024470;28;20266;-66
2023/03/30 08:15:42;;;;;;;0.10;0.10;;;;;;;;;;5015097;28;20508;-68
2023/03/30 08:18:11;;;;;;;0.10;0.10;;;;;;;;;;5024398;28;20236;-67
2023/03/30 08:20:39;;;;;;;0.10;0.10;;;;;;;;;;5014206;28;20242;-68
2023/03/30 08:23:06;;;;;;;0.10;0.10;;;;;;;;;;5024049;28;20206;-67
2023/03/30 08:25:33;;;;;;;0.10;0.10;;;;;;;;;;5014663;28;20253;-68
2023/03/30 08:28:00;;;;;;;0.10;0.10;;;;;;;;;;5024643;28;20265;-66
2023/03/30 08:30:27;;;;;;;0.10;0.10;;;;;;;;;;5014817;28;20211;-67
2023/03/30 08:32:53;;;;;;;0.10;0.10;;;;;;;;;;5023909;28;20196;-65
2023/03/30 08:35:21;;;;;;;0.10;0.10;;;;;;;;;;5015343;28;20416;-66
2023/03/30 08:37:47;;;;;;;0.00;0.00;;;;;;;;;;5024088;28;20212;-66
2023/03/30 08:40:14;;;;;;;0.10;0.10;;;;;;;;;;5015249;28;20466;-67
2023/03/30 08:42:51;;;;;;;0.10;0.10;;;;;;;;;;5024393;28;20201;-67
2023/03/30 08:45:18;;;;;;;0.10;0.10;;;;;;;;;;5015246;28;20268;-67
2023/03/30 08:47:47;;;;;;;0.53;0.53;;;;;;;;;;5024159;28;20194;-67
2023/03/30 08:50:14;;;;;;;1.17;1.17;;;;;;;;;;5015283;28;20532;-65
2023/03/30 08:52:41;;;;;;;0.10;0.10;;;;;;;;;;5023761;28;20280;-67
2023/03/30 08:55:15;;;;;;;0.40;0.40;;;;;;;;;;5019921;28;20205;-68
2023/03/30 08:57:46;;;;;;;0.53;0.53;;;;;;;;;;5023938;28;20468;-67
2023/03/30 09:00:20;;;;;;;0.10;0.10;;;;;;;;;;5014495;28;20272;-67
2023/03/30 09:02:48;;;;;;;0.10;0.10;;;;;;;;;;5022742;28;20235;-66
2023/03/30 09:05:17;;;;;;;0.10;0.10;;;;;;;;;;5013869;28;20275;-65
2023/03/30 09:07:47;;;;;;;0.10;0.10;;;;;;;;;;5023072;28;20218;-66
2023/03/30 09:10:15;;;;;;;0.10;0.10;;;;;;;;;;5014024;28;20201;-67
2023/03/30 09:12:42;;;;;;;0.10;0.10;;;;;;;;;;5022841;28;20239;-66
2023/03/30 09:15:13;;;;;;;0.10;0.10;;;;;;;;;;5014465;28;20442;-66
2023/03/30 09:17:42;;;;;;;0.10;0.10;;;;;;;;;;5022996;28;20225;-68
2023/03/30 09:20:12;;;;;;;1.53;1.53;;;;;;;;;;5016441;28;20287;-70
2023/03/30 09:22:39;;;;;;;0.10;0.10;;;;;;;;;;5023177;28;20449;-67
2023/03/30 09:25:11;;;;;;;0.10;0.10;;;;;;;;;;5023556;28;20403;-66
2023/03/30 09:27:42;;;;;;;0.10;0.10;;;;;;;;;;4997284;28;20454;-66
2023/03/30 09:30:15;;;;;;;0.10;0.10;;;;;;;;;;5025312;28;20235;-66
2023/03/30 09:32:46;;;;;;;0.10;0.10;;;;;;;;;;5021186;28;20242;-66
2023/03/30 09:35:14;;;;;;;0.10;0.10;;;;;;;;;;5018338;28;20248;-65
2023/03/30 09:37:41;;;;;;;0.10;0.10;;;;;;;;;;5027422;28;20202;-66
2023/03/30 09:40:18;;;;;;;0.20;0.20;;;;;;;;;;5024388;28;20223;-65
2023/03/30 09:42:50;;;;;;;0.10;0.10;;;;;;;;;;5027970;28;20192;-65
2023/03/30 09:45:19;;;;;;;0.10;0.10;;;;;;;;;;5018257;28;20553;-65
2023/03/30 09:47:47;;;;;;;0.10;0.10;;;;;;;;;;5027152;28;20231;-65
2023/03/30 09:50:16;;;;;;;0.30;0.30;;;;;;;;;;5018251;28;20449;-65
2023/03/30 09:52:53;;;;;;;0.10;0.10;;;;;;;;;;5026835;28;20195;-65
2023/03/30 09:55:25;;;;;;;1.37;1.23;;;;;;;;;;5017846;28;20241;-65
2023/03/30 09:57:52;;;;;;;0.10;0.10;;;;;;;;;;5026931;28;20543;-65
2023/03/30 10:00:23;;;;;;;0.40;0.40;;;;;;;;;;5017057;28;20229;-65
2023/03/30 10:02:56;;;;;;;0.60;0.23;;;;;;;;;;5027361;28;20202;-67
2023/03/30 10:05:23;;;;;;;0.10;0.10;;;;;;;;;;5017833;28;20220;-65
2023/03/30 10:07:53;;;;;;;0.10;0.10;;;;;;;;;;5027186;28;20387;-65
2023/03/30 10:10:28;;;;;;;0.20;0.20;;;;;;;;;;5018139;28;20374;-66
2023/03/30 10:12:55;;;;;;;2.03;1.93;;;;;;;;;;5027139;28;20213;-67
2023/03/30 10:15:23;;;;;;;0.10;0.10;;;;;;;;;;5017857;28;20506;-67
2023/03/30 10:17:53;;;;;;;0.10;0.10;;;;;;;;;;5026705;28;20199;-67
2023/03/30 10:20:26;;;;;;;0.63;0.50;;;;;;;;;;5017510;28;20220;-67
2023/03/30 10:22:54;;;;;;;5.73;5.43;;;;;;;;;;5026605;28;20206;-65
2023/03/30 10:25:22;;;;;;;0.10;0.10;;;;;;;;;;5017389;28;20276;-66
2023/03/30 10:27:49;;;;;;;0.30;0.30;;;;;;;;;;5026766;28;20195;-66
2023/03/30 10:30:18;;;;;;;3.07;1.10;;;;;;;;;;5017361;28;20231;-66
2023/03/30 10:32:45;;;;;;;0.10;0.10;;;;;;;;;;5026093;28;20433;-68
2023/03/30 10:35:11;;;;;;;0.30;0.30;;;;;;;;;;5016807;28;20208;-67
2023/03/30 10:37:40;;;;;;;0.10;0.10;;;;;;;;;;5025662;28;20277;-67
2023/03/30 10:40:11;;;;;;;13.97;2.53;;;;;;;;;;5026681;28;20214;-67
2023/03/30 10:42:37;;;;;;;0.93;0.90;;;;;;;;;;4998512;28;20231;-67
2023/03/30 10:45:05;;;;;;;0.50;0.50;;;;;;;;;;5026411;28;20446;-66
2023/03/30 10:47:48;;;;;;;0.20;0.20;;;;;;;;;;5015244;28;20280;-67
2023/03/30 10:50:23;;;;;;;0.20;0.20;;;;;;;;;;5016371;28;20229;-67
2023/03/30 10:52:56;;;;;;;0.37;0.37;;;;;;;;;;5025046;28;20271;-67
2023/03/30 10:55:24;;;;;;;0.77;0.70;;;;;;;;;;5017139;28;20287;-67
2023/03/30 10:57:55;;;;;;;0.20;0.20;;;;;;;;;;5025755;28;20266;-66
2023/03/30 11:00:25;;;;;;;0.10;0.10;;;;;;;;;;5015902;28;20230;-66
2023/03/30 11:02:57;;;;;;;0.10;0.10;;;;;;;;;;5025186;28;20212;-67
2023/03/30 11:05:28;;;;;;;0.30;0.30;;;;;;;;;;5016364;28;20447;-67
2023/03/30 11:07:59;;;;;;;0.10;0.10;;;;;;;;;;5025474;28;20403;-67
2023/03/30 11:10:28;;;;;;;0.10;0.10;;;;;;;;;;5015999;28;20222;-66
2023/03/30 11:12:56;;;;;;;0.10;0.10;;;;;;;;;;5025257;28;20230;-66
2023/03/30 11:15:26;;;;;;;0.10;0.10;;;;;;;;;;5015913;28;20245;-66
2023/03/30 11:17:57;;;;;;;0.10;0.10;;;;;;;;;;5024917;28;20195;-67
2023/03/30 11:20:26;;;;;;;0.30;0.30;;;;;;;;;;5015646;28;20229;-66
2023/03/30 11:22:55;;;;;;;2.03;0.97;;;;;;;;;;5024892;28;20231;-66
2023/03/30 11:25:24;;;;;;;2.90;1.07;;;;;;;;;;5015616;28;20396;-66
2023/03/30 11:27:52;;;;;;;0.00;0.00;;;;;;;;;;5024760;28;20505;-66
2023/03/30 11:30:20;;;;;;;0.67;0.67;;;;;;;;;;5015185;28;20245;-66
2023/03/30 11:32:52;;;;;;;0.10;0.10;;;;;;;;;;5025827;28;20233;-66
2023/03/30 11:35:20;;;;;;;0.30;0.30;;;;;;;;;;5016366;28;20219;-66
2023/03/30 11:37:50;;;;;;;0.10;0.10;;;;;;;;;;5025400;28;20203;-66
2023/03/30 11:40:17;;;;;;;0.70;0.70;;;;;;;;;;5016111;28;20229;-67
2023/03/30 11:42:46;;;;;;;0.10;0.10;;;;;;;;;;5024465;28;20194;-68
2023/03/30 11:45:24;;;;;;;0.40;0.40;;;;;;;;;;5016072;28;20214;-66
2023/03/30 11:47:56;;;;;;;0.10;0.10;;;;;;;;;;5024864;28;20233;-66
2023/03/30 11:50:32;;;;;;;0.00;0.00;;;;;;;;;;5015763;28;20231;-66
2023/03/30 11:53:05;;;;;;;0.63;0.63;;;;;;;;;;5024001;28;20265;-65
2023/03/30 11:55:50;;;;;;;0.10;0.10;;;;;;;;;;5014097;28;20253;-60
2023/03/30 11:58:22;;;;;;;0.10;0.10;;;;;;;;;;5024499;28;20441;-61
2023/03/30 12:00:53;;;;;;;0.10;0.10;;;;;;;;;;5014462;28;20439;-68
2023/03/30 12:03:41;;;;;;;0.10;0.10;;;;;;;;;;5024429;28;20206;-68
2023/03/30 12:06:17;;;;;;;0.90;0.67;;;;;;;;;;5009544;28;20283;-69
2023/03/30 12:08:49;;;;;;;0.57;0.30;;;;;;;;;;5025161;28;20459;-69
2023/03/30 12:11:18;;;;;;;0.30;0.30;;;;;;;;;;5014532;28;20504;-71
2023/03/30 12:13:46;;;;;;;0.10;0.10;;;;;;;;;;5024857;28;20212;-68
2023/03/30 12:16:16;;;;;;;0.45;0.45;;;;;;;;;;5014739;28;20304;-68
2023/03/30 12:18:45;;;;;;;0.73;0.73;;;;;;;;;;5025204;28;20237;-66
2023/03/30 12:21:21;;;;;;;0.20;0.20;;;;;;;;;;5014888;28;20260;-67
2023/03/30 12:23:49;;;;;;;0.10;0.10;;;;;;;;;;5025121;28;20278;-67
2023/03/30 12:26:24;;;;;;;0.10;0.10;;;;;;;;;;5014534;28;20290;-67
2023/03/30 12:28:58;;;;;;;0.10;0.10;;;;;;;;;;5024240;28;20243;-67
2023/03/30 12:31:47;;;;;;;0.73;0.73;;;;;;;;;;5013635;28;20240;-67
2023/03/30 12:34:14;;;;;;;0.10;0.10;;;;;;;;;;5024168;28;20450;-67
2023/03/30 12:36:41;;;;;;;0.63;0.63;;;;;;;;;;5013476;28;20241;-67
2023/03/30 12:39:14;;;;;;;0.10;0.10;;;;;;;;;;5024400;28;20206;-63
2023/03/30 12:41:42;;;;;;;0.08;0.08;;;;;;;;;;5013331;28;20307;-69
2023/03/30 12:44:28;;;;;;;0.17;0.17;;;;;;;;;;5024501;28;20205;-69
2023/03/30 12:47:00;;;;;;;4.87;0.30;;;;;;;;;;5013869;28;20584;-68
2023/03/30 12:49:32;;;;;;;0.98;0.90;;;;;;;;;;5024046;28;20215;-69
2023/03/30 12:52:04;;;;;;;0.10;0.10;;;;;;;;;;5013267;28;20238;-66
2023/03/30 12:54:38;;;;;;;0.10;0.10;;;;;;;;;;5024340;28;20268;-66
2023/03/30 12:57:08;;;;;;;2.22;0.28;;;;;;;;;;5013018;28;20463;-68
2023/03/30 12:59:48;;;;;;;1.02;0.95;;;;;;;;;;5024316;28;20421;-68
2023/03/30 13:02:32;;;;;;;0.10;0.10;;;;;;;;;;5013143;28;20307;-68
2023/03/30 13:04:59;;;;;;;0.30;0.30;;;;;;;;;;5024285;28;20277;-69
2023/03/30 13:07:28;;;;;;;6.82;6.13;;;;;;;;;;5013280;28;20482;-68
2023/03/30 13:09:56;;;;;;;0.88;0.88;;;;;;;;;;5024706;28;20215;-68
2023/03/30 13:12:39;;;;;;;1.27;0.45;;;;;;;;;;5013232;28;20283;-69
2023/03/30 13:15:29;;;;;;;0.10;0.10;;;;;;;;;;5024587;28;20216;-68
2023/03/30 13:17:59;;;;;;;0.10;0.10;;;;;;;;;;5037002;28;20229;-68
2023/03/30 13:20:28;;;;;;;0.10;0.10;;;;;;;;;;5013675;28;20224;-68
2023/03/30 13:23:13;;;;;;;0.10;0.10;;;;;;;;;;5023685;28;20461;-68
2023/03/30 13:25:40;;;;;;;0.10;0.10;;;;;;;;;;5003617;28;20248;-68
2023/03/30 13:28:27;;;;;;;4.13;0.75;;;;;;;;;;5023104;28;20391;-68
2023/03/30 13:30:56;;;;;;;0.10;0.10;;;;;;;;;;4988212;28;20240;-68
2023/03/30 13:33:24;;;;;;;0.23;0.23;;;;;;;;;;5023109;28;20286;-68
2023/03/30 13:35:56;;;;;;;0.13;0.13;;;;;;;;;;5013466;28;20264;-68
2023/03/30 13:38:38;;;;;;;1.20;1.10;;;;;;;;;;5023150;28;20213;-66
2023/03/30 13:41:11;;;;;;;0.00;0.00;;;;;;;;;;5013658;28;20324;-67
2023/03/30 13:43:47;;;;;;;0.10;0.10;;;;;;;;;;5023802;28;20285;-67
2023/03/30 13:46:15;;;;;;;0.30;0.30;;;;;;;;;;5013446;28;20278;-67
2023/03/30 13:48:50;;;;;;;1.20;0.43;;;;;;;;;;5023806;28;20427;-69
2023/03/30 13:51:19;;;;;;;0.13;0.13;;;;;;;;;;5013600;28;20327;-68
2023/03/30 13:53:48;;;;;;;0.70;0.27;;;;;;;;;;5023576;28;20212;-60
2023/03/30 13:56:15;;;;;;;0.13;0.13;;;;;;;;;;5013554;28;20452;-68
2023/03/30 13:58:44;;;;;;;0.10;0.10;;;;;;;;;;5023946;28;20499;-68
2023/03/30 14:01:12;;;;;;;0.10;0.10;;;;;;;;;;5013335;28;20288;-70
2023/03/30 14:03:40;;;;;;;0.10;0.10;;;;;;;;;;5023989;28;20205;-68
2023/03/30 14:06:14;;;;;;;0.37;0.37;;;;;;;;;;5013627;28;20292;-69
2023/03/30 14:08:43;;;;;;;0.17;0.17;;;;;;;;;;5024049;28;20283;-67
2023/03/30 14:11:15;;;;;;;0.00;0.00;;;;;;;;;;5013692;28;20430;-69
2023/03/30 14:13:42;;;;;;;0.00;0.00;;;;;;;;;;5023891;28;20462;-67
2023/03/30 14:16:09;;;;;;;0.10;0.10;;;;;;;;;;5013910;28;20501;-67
2023/03/30 14:18:35;;;;;;;0.10;0.10;;;;;;;;;;5025963;28;20538;-68
2023/03/30 14:21:03;;;;;;;0.00;0.00;;;;;;;;;;5016634;28;20255;-69
2023/03/30 14:23:36;;;;;;;0.10;0.10;;;;;;;;;;5026809;28;20445;-69
2023/03/30 14:26:04;;;;;;;0.10;0.10;;;;;;;;;;5016599;28;20258;-70
2023/03/30 14:28:33;;;;;;;0.10;0.10;;;;;;;;;;5026085;28;20220;-67
2023/03/30 14:31:03;;;;;;;0.10;0.10;;;;;;;;;;5016463;28;20422;-69
2023/03/30 14:33:29;;;;;;;0.00;0.00;;;;;;;;;;5026450;28;20273;-68
2023/03/30 14:35:56;;;;;;;0.10;0.10;;;;;;;;;;5016298;28;20262;-69
2023/03/30 14:38:28;;;;;;;0.10;0.10;;;;;;;;;;5026047;28;20214;-70
2023/03/30 14:40:56;;;;;;;0.10;0.10;;;;;;;;;;5016262;28;20244;-69
2023/03/30 14:43:24;;;;;;;0.10;0.10;;;;;;;;;;5025942;28;20244;-69
2023/03/30 14:45:51;;;;;;;0.10;0.10;;;;;;;;;;5016174;28;20269;-69
2023/03/30 14:48:21;;;;;;;0.10;0.10;;;;;;;;;;5025772;28;20560;-68
2023/03/30 14:50:48;;;;;;;0.10;0.10;;;;;;;;;;5015950;28;20310;-69
2023/03/30 14:53:15;;;;;;;0.10;0.10;;;;;;;;;;5025561;28;20279;-69
2023/03/30 14:55:42;;;;;;;0.10;0.10;;;;;;;;;;5016206;28;20261;-69